Time;durP1;ratioP1;P1;durP2;ratioP2;P2;SDS_P1;SDS_P2;PMS_P1;PMS_P2;Temp;Humidity;BMP_temperature;BMP_pressure;BME280_temperature;BME280_humidity;BME280_pressure;Samples;Min_cycle;Max_cycle;Signal;HPM_P1;HPM_P2
2022/10/05 00:01:43;;;;;;;9.30;5.23;;;10.20;99.90;;;;;;5113596;28;20260;-70
2022/10/05 00:04:14;;;;;;;10.93;6.17;;;10.20;99.90;;;;;;5112433;28;20582;-69
2022/10/05 00:06:41;;;;;;;12.83;5.93;;;10.20;99.90;;;;;;5111686;28;20291;-69
2022/10/05 00:09:15;;;;;;;9.33;4.97;;;10.20;99.90;;;;;;5110624;28;20215;-70
2022/10/05 00:11:42;;;;;;;10.70;5.17;;;10.20;99.90;;;;;;5113117;28;20215;-68
2022/10/05 00:14:16;;;;;;;12.77;5.40;;;10.30;99.90;;;;;;5109490;28;20219;-69
2022/10/05 00:16:43;;;;;;;12.87;5.80;;;10.20;99.90;;;;;;5109689;28;20326;-69
2022/10/05 00:19:18;;;;;;;11.83;5.57;;;10.30;99.90;;;;;;5111185;28;20208;-70
2022/10/05 00:21:44;;;;;;;8.40;5.20;;;10.30;99.90;;;;;;5113201;28;20202;-71
2022/10/05 00:24:14;;;;;;;7.13;5.07;;;10.30;99.90;;;;;;5110637;28;20238;-70
2022/10/05 00:26:41;;;;;;;10.97;5.77;;;10.30;99.90;;;;;;5111819;28;20204;-69
2022/10/05 00:29:20;;;;;;;7.43;5.47;;;10.30;99.90;;;;;;5112164;28;20211;-70
2022/10/05 00:31:47;;;;;;;13.57;5.47;;;10.40;99.90;;;;;;5114132;28;20231;-70
2022/10/05 00:34:14;;;;;;;8.33;5.27;;;10.30;99.90;;;;;;5110244;28;20212;-70
2022/10/05 00:36:41;;;;;;;9.93;6.07;;;10.30;99.90;;;;;;5111318;28;20215;-68
2022/10/05 00:39:08;;;;;;;8.70;5.07;;;10.40;99.90;;;;;;5111335;28;20208;-69
2022/10/05 00:41:51;;;;;;;8.23;5.67;;;10.40;99.90;;;;;;5112081;28;20222;-70
2022/10/05 00:44:34;;;;;;;8.23;5.43;;;10.40;99.90;;;;;;5110687;28;20671;-70
2022/10/05 00:47:10;;;;;;;9.77;5.20;;;10.40;99.90;;;;;;5112121;28;20211;-69
2022/10/05 00:49:59;;;;;;;9.33;5.53;;;10.40;99.90;;;;;;5112286;28;20207;-70
2022/10/05 00:52:32;;;;;;;11.73;5.43;;;10.40;99.90;;;;;;5104456;28;20207;-70
2022/10/05 00:55:06;;;;;;;10.23;5.83;;;10.40;99.90;;;;;;5110427;28;21013;-69
2022/10/05 00:57:47;;;;;;;9.87;5.30;;;10.50;99.90;;;;;;5110639;28;20549;-72
2022/10/05 01:00:18;;;;;;;9.73;5.20;;;10.50;99.90;;;;;;5100020;28;20248;-70
2022/10/05 01:02:54;;;;;;;12.77;6.27;;;10.50;99.90;;;;;;5111585;28;20192;-71
2022/10/05 01:05:46;;;;;;;8.73;5.87;;;10.50;99.90;;;;;;5103872;28;20726;-69
2022/10/05 01:08:25;;;;;;;7.20;5.37;;;10.50;99.90;;;;;;5107899;28;20571;-69
2022/10/05 01:11:02;;;;;;;9.40;6.60;;;10.50;99.90;;;;;;5112165;28;20207;-69
2022/10/05 01:13:37;;;;;;;12.60;6.07;;;10.60;99.90;;;;;;5109338;28;20239;-70
2022/10/05 01:16:10;;;;;;;10.47;5.77;;;10.60;99.90;;;;;;5108309;28;20199;-71
2022/10/05 01:18:44;;;;;;;11.03;6.00;;;10.60;99.90;;;;;;5111750;28;20199;-70
2022/10/05 01:21:18;;;;;;;10.03;5.60;;;10.60;99.90;;;;;;5113193;28;20195;-72
2022/10/05 01:24:20;;;;;;;10.73;5.13;;;10.60;99.90;;;;;;5108938;28;20228;-71
2022/10/05 01:27:20;;;;;;;7.43;5.17;;;10.70;99.90;;;;;;5070573;28;20294;-71
2022/10/05 01:29:53;;;;;;;10.70;5.73;;;10.70;99.90;;;;;;5092687;28;20552;-70
2022/10/05 01:32:28;;;;;;;13.93;6.53;;;10.70;99.90;;;;;;5111079;28;20680;-71
2022/10/05 01:35:05;;;;;;;10.50;5.63;;;10.70;99.90;;;;;;5111448;28;20199;-71
2022/10/05 01:37:45;;;;;;;12.63;6.17;;;10.80;99.90;;;;;;5112004;28;20203;-70
2022/10/05 01:40:19;;;;;;;10.00;5.80;;;10.80;99.90;;;;;;5112517;28;20207;-71
2022/10/05 01:42:59;;;;;;;10.53;6.53;;;10.80;99.90;;;;;;5111332;28;20198;-71
2022/10/05 01:45:33;;;;;;;9.13;5.93;;;10.80;99.90;;;;;;5108129;28;20200;-71
2022/10/05 01:48:08;;;;;;;8.47;6.40;;;10.70;99.90;;;;;;5111707;28;20558;-71
2022/10/05 01:50:46;;;;;;;10.40;6.57;;;10.70;99.90;;;;;;5111811;28;20656;-71
2022/10/05 01:53:24;;;;;;;13.00;6.73;;;10.80;99.90;;;;;;5110344;28;20723;-71
2022/10/05 01:55:58;;;;;;;11.77;6.40;;;10.80;99.90;;;;;;5112744;28;20204;-72
2022/10/05 01:58:35;;;;;;;9.93;6.43;;;10.80;99.90;;;;;;5111721;28;20199;-72
2022/10/05 02:01:12;;;;;;;9.43;6.10;;;10.80;99.90;;;;;;5112451;28;20684;-72
2022/10/05 02:03:44;;;;;;;10.33;5.87;;;10.80;99.90;;;;;;5109959;28;20683;-71
2022/10/05 02:06:16;;;;;;;11.93;7.17;;;10.80;99.90;;;;;;5111159;28;20200;-70
2022/10/05 02:08:48;;;;;;;14.73;6.83;;;10.80;99.90;;;;;;5111716;28;20246;-71
2022/10/05 02:11:15;;;;;;;9.67;5.53;;;10.80;99.90;;;;;;5112085;28;20200;-71
2022/10/05 02:13:48;;;;;;;13.23;7.30;;;10.80;99.90;;;;;;5108015;28;20288;-71
2022/10/05 02:16:20;;;;;;;9.33;5.70;;;10.80;99.90;;;;;;5112024;28;20208;-71
2022/10/05 02:18:51;;;;;;;7.13;5.23;;;10.80;99.90;;;;;;5110672;28;20200;-71
2022/10/05 02:21:20;;;;;;;9.37;5.70;;;10.80;99.90;;;;;;5109797;28;20207;-71
2022/10/05 02:23:51;;;;;;;7.93;5.77;;;10.70;99.90;;;;;;5107575;28;20570;-71
2022/10/05 02:26:20;;;;;;;10.13;5.47;;;10.70;99.90;;;;;;5109845;28;20208;-69
2022/10/05 02:28:50;;;;;;;12.03;5.40;;;10.70;99.90;;;;;;5113061;28;20675;-71
2022/10/05 02:31:22;;;;;;;10.23;5.73;;;10.60;99.90;;;;;;5105575;28;20200;-71
2022/10/05 02:33:49;;;;;;;9.03;5.70;;;10.60;99.90;;;;;;5114347;28;20200;-71
2022/10/05 02:36:19;;;;;;;7.50;5.00;;;10.60;99.90;;;;;;5114369;28;20208;-70
2022/10/05 02:39:09;;;;;;;8.67;5.27;;;10.60;99.90;;;;;;5109378;28;20205;-69
2022/10/05 02:41:47;;;;;;;12.23;5.40;;;10.60;99.90;;;;;;5115450;28;20196;-70
2022/10/05 02:44:24;;;;;;;7.20;5.07;;;10.60;99.90;;;;;;5114712;28;20199;-70
2022/10/05 02:46:59;;;;;;;7.77;4.87;;;10.60;99.90;;;;;;5115385;28;20211;-71
2022/10/05 02:49:36;;;;;;;6.57;4.97;;;10.60;99.90;;;;;;5113636;28;20664;-70
2022/10/05 02:52:07;;;;;;;7.47;4.90;;;10.60;99.90;;;;;;5109288;28;20223;-70
2022/10/05 02:54:44;;;;;;;6.97;5.10;;;10.50;99.90;;;;;;5115262;28;20200;-69
2022/10/05 02:57:16;;;;;;;10.47;5.63;;;10.50;99.90;;;;;;5112638;28;20702;-70
2022/10/05 02:59:47;;;;;;;8.63;5.43;;;10.50;99.90;;;;;;5113963;28;20200;-70
2022/10/05 03:02:21;;;;;;;9.37;5.30;;;10.50;99.90;;;;;;5114915;28;20199;-69
2022/10/05 03:04:58;;;;;;;12.47;6.07;;;10.50;99.90;;;;;;5112615;28;20208;-70
2022/10/05 03:07:31;;;;;;;10.43;5.67;;;10.50;99.90;;;;;;5114762;28;20203;-71
2022/10/05 03:10:05;;;;;;;10.50;5.63;;;10.40;99.90;;;;;;5111336;28;20214;-69
2022/10/05 03:12:44;;;;;;;14.43;6.23;;;10.40;99.90;;;;;;5113125;28;20212;-70
2022/10/05 03:15:22;;;;;;;8.20;5.67;;;10.40;99.90;;;;;;5111343;28;20560;-70
2022/10/05 03:17:59;;;;;;;11.73;6.37;;;10.40;99.90;;;;;;5101837;27;20211;-70
2022/10/05 03:20:38;;;;;;;11.07;6.17;;;10.40;99.90;;;;;;5112769;28;20195;-70
2022/10/05 03:23:13;;;;;;;11.93;6.23;;;10.40;99.90;;;;;;5115448;28;20564;-70
2022/10/05 03:26:02;;;;;;;11.63;6.23;;;10.40;99.90;;;;;;5114269;28;20246;-71
2022/10/05 03:28:38;;;;;;;9.90;5.70;;;10.40;99.90;;;;;;5113452;28;20649;-70
2022/10/05 03:31:12;;;;;;;9.17;6.03;;;10.40;99.90;;;;;;5114376;28;20204;-71
2022/10/05 03:33:48;;;;;;;10.33;5.87;;;10.50;99.90;;;;;;5113568;28;20212;-69
2022/10/05 03:36:22;;;;;;;9.13;6.10;;;10.40;99.90;;;;;;5114020;28;20214;-69
2022/10/05 03:38:56;;;;;;;9.07;6.33;;;10.40;99.90;;;;;;5113547;28;20694;-70
2022/10/05 03:41:31;;;;;;;9.27;5.80;;;10.40;99.90;;;;;;5114634;28;20290;-70
2022/10/05 03:44:24;;;;;;;8.70;5.37;;;10.40;99.90;;;;;;5113211;28;20191;-69
2022/10/05 03:47:05;;;;;;;9.33;6.07;;;10.40;99.90;;;;;;5102755;28;20668;-70
2022/10/05 03:49:46;;;;;;;11.33;6.27;;;10.40;99.90;;;;;;5110026;28;20570;-69
2022/10/05 03:52:16;;;;;;;8.87;5.90;;;10.40;99.90;;;;;;5103856;28;20219;-70
2022/10/05 03:54:47;;;;;;;11.93;6.23;;;10.40;99.90;;;;;;5114191;28;20203;-70
2022/10/05 03:57:18;;;;;;;10.37;6.30;;;10.40;99.90;;;;;;5114003;28;20540;-70
2022/10/05 03:59:51;;;;;;;11.57;6.33;;;10.40;99.90;;;;;;5113259;28;20798;-70
2022/10/05 04:02:23;;;;;;;10.40;6.07;;;10.40;99.90;;;;;;5114014;28;20219;-69
2022/10/05 04:04:57;;;;;;;9.43;5.63;;;10.40;99.90;;;;;;5109165;28;20204;-69
2022/10/05 04:07:33;;;;;;;10.37;6.73;;;10.40;99.90;;;;;;5113010;28;20585;-71
2022/10/05 04:10:03;;;;;;;9.53;5.80;;;10.40;99.90;;;;;;5112680;28;20196;-70
2022/10/05 04:12:35;;;;;;;10.90;6.63;;;10.40;99.90;;;;;;5113180;28;20240;-70
2022/10/05 04:15:14;;;;;;;11.93;5.67;;;10.40;99.90;;;;;;5111514;28;20304;-69
2022/10/05 04:17:44;;;;;;;12.03;6.00;;;10.40;99.90;;;;;;5099583;28;20202;-70
2022/10/05 04:20:19;;;;;;;10.77;6.13;;;10.40;99.90;;;;;;5108621;28;20675;-70
2022/10/05 04:22:53;;;;;;;10.77;6.33;;;10.40;99.90;;;;;;5109951;28;20219;-69
2022/10/05 04:25:24;;;;;;;8.47;5.60;;;10.30;99.90;;;;;;5113349;28;20288;-70
2022/10/05 04:27:55;;;;;;;11.97;6.50;;;10.40;99.90;;;;;;5113034;28;20652;-70
2022/10/05 04:30:22;;;;;;;10.27;5.47;;;10.30;99.90;;;;;;5110810;28;20204;-71
2022/10/05 04:32:52;;;;;;;13.43;6.47;;;10.40;99.90;;;;;;5109205;28;20223;-70
2022/10/05 04:35:37;;;;;;;11.67;5.57;;;10.40;99.90;;;;;;5112525;27;20500;-70
2022/10/05 04:38:15;;;;;;;10.10;5.70;;;10.30;99.90;;;;;;5102539;28;20199;-70
2022/10/05 04:40:54;;;;;;;9.77;6.17;;;10.40;99.90;;;;;;5112548;28;20199;-71
2022/10/05 04:43:34;;;;;;;11.43;6.30;;;10.40;99.90;;;;;;5113826;28;20212;-70
2022/10/05 04:46:14;;;;;;;13.70;6.37;;;10.40;99.90;;;;;;5108338;28;20692;-70
2022/10/05 04:48:55;;;;;;;11.33;5.57;;;10.40;99.90;;;;;;5104683;28;20208;-70
2022/10/05 04:51:35;;;;;;;6.57;5.23;;;10.30;99.90;;;;;;5110251;28;20210;-72
2022/10/05 04:54:13;;;;;;;14.47;6.13;;;10.40;99.90;;;;;;5106325;28;20223;-71
2022/10/05 04:56:42;;;;;;;11.50;6.60;;;10.30;99.90;;;;;;5114589;28;20196;-72
2022/10/05 04:59:39;;;;;;;8.67;5.83;;;10.30;99.90;;;;;;5103737;28;20216;-71
2022/10/05 05:02:17;;;;;;;9.23;5.63;;;10.40;99.90;;;;;;5111145;28;20219;-70
2022/10/05 05:05:17;;;;;;;9.00;6.30;;;10.30;99.90;;;;;;5113682;27;20203;-71
2022/10/05 05:07:51;;;;;;;12.80;6.17;;;10.40;99.90;;;;;;5103287;28;20286;-72
2022/10/05 05:10:50;;;;;;;14.57;6.27;;;10.30;99.90;;;;;;5110639;28;20200;-71
2022/10/05 05:13:32;;;;;;;13.67;6.40;;;10.30;99.90;;;;;;5094464;28;20252;-73
2022/10/05 05:16:04;;;;;;;11.13;6.47;;;10.40;99.90;;;;;;5107777;28;20212;-71
2022/10/05 05:18:53;;;;;;;10.40;6.60;;;10.40;99.90;;;;;;5111788;28;20199;-73
2022/10/05 05:21:36;;;;;;;8.93;6.00;;;10.40;99.90;;;;;;5113767;28;20204;-75
2022/10/05 05:24:15;;;;;;;11.90;6.53;;;10.40;99.90;;;;;;5113404;28;20203;-75
2022/10/05 05:26:56;;;;;;;8.70;5.83;;;10.50;99.90;;;;;;5103055;28;20268;-72
2022/10/05 05:29:35;;;;;;;13.40;5.87;;;10.50;99.90;;;;;;5110120;28;20196;-74
2022/10/05 05:32:11;;;;;;;10.13;5.63;;;10.50;99.90;;;;;;5102902;28;20239;-74
2022/10/05 05:34:49;;;;;;;11.67;5.90;;;10.60;99.90;;;;;;5108114;28;20192;-71
2022/10/05 05:37:22;;;;;;;9.70;6.10;;;10.60;99.90;;;;;;5105494;28;20214;-75
2022/10/05 05:40:00;;;;;;;9.97;6.13;;;10.70;99.90;;;;;;5098654;28;20211;-74
2022/10/05 05:42:37;;;;;;;8.30;5.90;;;10.70;99.90;;;;;;5108515;28;20196;-75
2022/10/05 05:45:15;;;;;;;11.03;5.97;;;10.70;99.90;;;;;;5111057;28;20211;-74
2022/10/05 05:47:50;;;;;;;13.03;6.80;;;10.70;99.90;;;;;;5105932;28;20292;-73
2022/10/05 05:50:41;;;;;;;9.83;5.87;;;10.70;99.90;;;;;;5107475;28;20644;-74
2022/10/05 05:53:15;;;;;;;11.47;6.53;;;10.70;99.90;;;;;;5113965;28;20208;-73
2022/10/05 05:55:47;;;;;;;9.83;5.97;;;10.80;99.90;;;;;;5109188;28;20193;-74
2022/10/05 05:58:20;;;;;;;10.27;6.40;;;10.80;99.90;;;;;;5111559;28;20258;-73
2022/10/05 06:00:53;;;;;;;10.47;5.67;;;10.80;99.90;;;;;;5112203;28;20192;-72
2022/10/05 06:03:25;;;;;;;11.23;6.57;;;10.90;99.90;;;;;;5115100;28;20290;-73
2022/10/05 06:05:55;;;;;;;14.23;6.40;;;10.90;99.90;;;;;;5115851;28;20215;-73
2022/10/05 06:08:28;;;;;;;11.07;6.03;;;10.90;99.90;;;;;;5116714;28;20949;-73
2022/10/05 06:11:01;;;;;;;11.77;6.07;;;11.00;99.90;;;;;;5115675;28;20579;-73
2022/10/05 06:13:33;;;;;;;10.13;5.67;;;11.10;99.90;;;;;;5114978;28;20238;-73
2022/10/05 06:16:07;;;;;;;12.23;5.23;;;11.10;99.90;;;;;;5111733;27;20207;-75
2022/10/05 06:18:37;;;;;;;10.93;6.30;;;11.10;99.90;;;;;;5109568;28;20286;-74
2022/10/05 06:21:11;;;;;;;15.47;6.00;;;11.20;99.90;;;;;;5113767;27;20203;-72
2022/10/05 06:23:43;;;;;;;10.00;6.10;;;11.30;99.90;;;;;;5117332;28;20619;-74
2022/10/05 06:26:21;;;;;;;10.70;6.20;;;11.40;99.90;;;;;;5101085;28;20222;-74
2022/10/05 06:28:56;;;;;;;16.37;5.63;;;11.40;99.90;;;;;;5111404;28;20561;-71
2022/10/05 06:31:34;;;;;;;12.67;5.53;;;11.40;99.90;;;;;;5110602;28;20200;-71
2022/10/05 06:34:07;;;;;;;12.47;6.70;;;11.50;99.90;;;;;;5114695;28;20220;-73
2022/10/05 06:36:40;;;;;;;8.50;5.37;;;11.60;99.90;;;;;;5111221;28;20204;-75
2022/10/05 06:39:37;;;;;;;11.50;6.17;;;11.60;99.90;;;;;;5115717;28;20204;-76
2022/10/05 06:42:25;;;;;;;9.97;5.87;;;11.70;99.90;;;;;;5114716;28;20227;-74
2022/10/05 06:45:01;;;;;;;12.20;6.17;;;11.80;99.90;;;;;;5112749;28;20668;-74
2022/10/05 06:47:36;;;;;;;11.77;6.13;;;11.90;99.90;;;;;;5114274;28;20533;-73
2022/10/05 06:50:13;;;;;;;13.33;6.07;;;11.90;99.90;;;;;;5114599;28;20451;-74
2022/10/05 06:52:55;;;;;;;11.10;5.80;;;11.90;99.90;;;;;;5110693;28;20245;-73
2022/10/05 06:55:30;;;;;;;9.27;5.63;;;12.00;99.90;;;;;;5112114;28;20287;-76
2022/10/05 06:58:14;;;;;;;8.67;6.30;;;12.10;99.90;;;;;;5112397;28;20523;-74
2022/10/05 07:00:49;;;;;;;9.10;5.50;;;12.10;99.90;;;;;;5114834;28;20588;-72
2022/10/05 07:03:26;;;;;;;11.77;5.40;;;12.10;99.90;;;;;;5107324;28;20192;-73
2022/10/05 07:06:03;;;;;;;7.97;5.27;;;12.20;99.90;;;;;;5112128;28;20941;-75
2022/10/05 07:08:45;;;;;;;9.60;5.50;;;12.20;99.90;;;;;;5115231;28;20523;-74
2022/10/05 07:11:25;;;;;;;13.13;5.77;;;12.20;99.90;;;;;;5108713;28;20211;-73
2022/10/05 07:14:13;;;;;;;8.57;5.67;;;12.30;99.90;;;;;;5106985;28;20207;-74
2022/10/05 07:16:51;;;;;;;10.10;5.47;;;12.30;99.90;;;;;;5094909;27;20203;-74
2022/10/05 07:19:36;;;;;;;9.87;4.83;;;12.40;99.90;;;;;;5116716;28;20231;-74
2022/10/05 07:22:24;;;;;;;7.57;5.40;;;12.50;99.90;;;;;;5111486;27;20301;-74
2022/10/05 07:25:00;;;;;;;12.77;5.67;;;12.50;99.90;;;;;;5116855;28;20288;-76
2022/10/05 07:27:33;;;;;;;12.70;5.27;;;12.70;99.90;;;;;;5115751;27;20200;-76
2022/10/05 07:30:04;;;;;;;8.67;5.17;;;12.90;99.90;;;;;;5116938;27;20219;-76
2022/10/05 07:32:36;;;;;;;10.33;5.33;;;13.10;99.90;;;;;;5114769;28;20204;-74
2022/10/05 07:37:53;;;;;;;10.50;5.13;;;13.30;99.90;;;;;;5115672;28;20219;-74
2022/10/05 07:38:04;;;;;;;9.23;4.80;;;13.60;99.90;;;;;;5114564;28;20204;-73
2022/10/05 07:40:38;;;;;;;7.60;4.50;;;13.80;99.90;;;;;;5116447;28;20192;-73
2022/10/05 07:43:21;;;;;;;9.90;4.70;;;14.10;99.90;;;;;;5115805;28;20272;-74
2022/10/05 07:46:08;;;;;;;7.97;5.00;;;14.20;99.90;;;;;;5105251;28;20215;-74
2022/10/05 07:48:52;;;;;;;7.30;4.70;;;14.40;99.90;;;;;;5113408;28;20204;-73
2022/10/05 07:51:29;;;;;;;11.67;5.27;;;14.40;99.90;;;;;;5114415;28;20218;-74
2022/10/05 07:54:10;;;;;;;7.83;4.70;;;14.50;99.90;;;;;;5112379;28;20223;-73
2022/10/05 07:56:42;;;;;;;9.40;4.57;;;14.50;99.90;;;;;;5115732;28;20203;-73
2022/10/05 07:59:15;;;;;;;9.57;4.40;;;14.50;99.90;;;;;;5113729;28;20235;-73
2022/10/05 08:01:48;;;;;;;7.40;4.20;;;14.50;99.90;;;;;;5114461;28;20229;-73
2022/10/05 08:04:20;;;;;;;6.47;3.80;;;14.60;99.90;;;;;;5113363;28;20212;-73
2022/10/05 08:06:53;;;;;;;6.47;4.30;;;14.60;99.90;;;;;;5111557;28;20640;-73
2022/10/05 08:09:32;;;;;;;9.33;4.50;;;14.80;99.90;;;;;;5114581;28;20210;-73
2022/10/05 08:12:09;;;;;;;6.10;4.10;;;15.10;99.90;;;;;;5115143;28;20207;-73
2022/10/05 08:14:43;;;;;;;8.53;4.37;;;15.30;99.90;;;;;;5111247;28;20211;-73
2022/10/05 08:17:20;;;;;;;7.43;3.90;;;15.50;99.90;;;;;;5111430;28;20207;-73
2022/10/05 08:19:52;;;;;;;10.57;4.53;;;15.60;99.90;;;;;;5111227;28;20203;-74
2022/10/05 08:22:25;;;;;;;6.40;3.80;;;15.70;99.90;;;;;;5110427;28;20231;-73
2022/10/05 08:24:58;;;;;;;6.27;4.23;;;15.80;99.90;;;;;;5107321;28;20230;-73
2022/10/05 08:27:30;;;;;;;6.10;3.40;;;16.20;99.90;;;;;;5108888;28;20204;-73
2022/10/05 08:30:00;;;;;;;6.47;3.60;;;16.60;99.90;;;;;;5112665;28;20215;-73
2022/10/05 08:32:32;;;;;;;6.23;3.27;;;16.80;99.90;;;;;;5110347;28;20219;-73
2022/10/05 08:35:11;;;;;;;7.57;3.90;;;17.00;99.90;;;;;;5112061;28;20227;-72
2022/10/05 08:37:40;;;;;;;5.13;3.13;;;17.00;99.90;;;;;;5111091;28;20232;-74
2022/10/05 08:40:44;;;;;;;7.27;3.53;;;17.10;99.90;;;;;;5114697;28;20211;-74
2022/10/05 08:43:31;;;;;;;6.55;3.50;;;17.10;99.90;;;;;;5103665;28;20214;-74
2022/10/05 08:46:35;;;;;;;5.85;3.47;;;17.20;99.90;;;;;;5109804;28;20203;-73
2022/10/05 08:49:32;;;;;;;6.40;3.50;;;17.10;99.90;;;;;;5107678;27;20200;-73
2022/10/05 08:52:27;;;;;;;6.25;2.83;;;17.20;99.90;;;;;;5110130;28;20208;-74
2022/10/05 08:55:27;;;;;;;6.22;3.47;;;17.30;99.90;;;;;;5112731;28;20224;-74
2022/10/05 08:58:26;;;;;;;5.80;3.28;;;17.30;99.90;;;;;;5112193;28;20253;-74
2022/10/05 09:01:00;;;;;;;5.88;3.53;;;17.30;99.90;;;;;;5109771;28;20312;-73
2022/10/05 09:03:53;;;;;;;5.47;3.38;;;17.40;99.90;;;;;;5113260;28;20576;-73
2022/10/05 09:07:00;;;;;;;6.25;2.95;;;17.70;99.90;;;;;;5114032;28;20212;-74
2022/10/05 09:09:54;;;;;;;5.47;3.58;;;18.20;99.90;;;;;;5113259;28;20664;-73
2022/10/05 09:12:43;;;;;;;6.90;3.25;;;18.60;99.90;;;;;;5103167;28;20208;-75
2022/10/05 09:15:38;;;;;;;6.78;3.47;;;19.20;99.90;;;;;;5107011;28;20212;-74
2022/10/05 09:18:52;;;;;;;5.68;3.70;;;19.70;99.90;;;;;;5059156;28;20523;-76
2022/10/05 09:21:31;;;;;;;5.35;3.38;;;20.40;99.90;;;;;;5107325;28;20202;-76
2022/10/05 09:24:15;;;;;;;8.25;3.60;;;21.00;99.90;;;;;;5107551;28;20247;-76
2022/10/05 09:26:45;;;;;;;5.20;3.53;;;20.80;99.70;;;;;;5100605;28;20218;-74
2022/10/05 09:29:44;;;;;;;5.40;3.42;;;20.60;99.00;;;;;;5112047;28;20203;-75
2022/10/05 09:32:42;;;;;;;6.40;3.80;;;20.40;99.50;;;;;;5090462;28;20214;-74
2022/10/05 09:35:27;;;;;;;9.88;4.43;;;20.50;99.50;;;;;;5110878;28;20227;-73
2022/10/05 09:38:17;;;;;;;7.65;3.40;;;20.60;98.60;;;;;;5110251;28;20192;-74
2022/10/05 09:41:19;;;;;;;5.45;3.25;;;20.50;98.10;;;;;;5112162;28;20211;-72
2022/10/05 09:44:35;;;;;;;5.38;3.03;;;20.60;98.20;;;;;;5110447;28;20196;-73
2022/10/05 09:47:19;;;;;;;6.63;3.17;;;20.60;97.00;;;;;;5030761;28;20273;-72
2022/10/05 09:50:07;;;;;;;4.72;2.83;;;20.50;97.20;;;;;;5102832;28;20199;-73
2022/10/05 09:52:53;;;;;;;4.22;2.92;;;20.80;97.10;;;;;;5111590;28;20820;-73
2022/10/05 09:55:47;;;;;;;8.98;3.38;;;20.90;96.30;;;;;;5109596;28;20226;-73
2022/10/05 09:58:48;;;;;;;10.95;3.00;;;21.10;96.20;;;;;;5111899;28;20690;-74
2022/10/05 10:01:33;;;;;;;9.60;3.42;;;21.70;95.30;;;;;;5104120;28;20251;-72
2022/10/05 10:04:21;;;;;;;7.18;3.10;;;22.40;95.10;;;;;;5110011;28;20205;-73
2022/10/05 10:07:19;;;;;;;4.63;2.85;;;23.50;92.90;;;;;;5111326;28;20195;-73
2022/10/05 10:10:08;;;;;;;4.07;2.90;;;24.80;90.20;;;;;;5111910;28;20204;-73
2022/10/05 10:12:51;;;;;;;6.50;2.85;;;25.90;85.40;;;;;;5110966;28;20207;-72
2022/10/05 10:15:49;;;;;;;10.43;3.00;;;27.50;79.20;;;;;;5111013;28;20223;-72
2022/10/05 10:18:36;;;;;;;8.93;3.08;;;29.00;67.90;;;;;;5103884;28;20220;-72
2022/10/05 10:21:24;;;;;;;5.80;2.55;;;30.30;63.90;;;;;;5099460;28;20204;-74
2022/10/05 10:24:00;;;;;;;4.80;2.60;;;31.70;57.70;;;;;;5050806;28;20224;-73
2022/10/05 10:27:17;;;;;;;5.78;2.50;;;33.50;55.10;;;;;;5100169;28;20210;-73
2022/10/05 10:30:24;;;;;;;5.53;2.60;;;35.60;48.00;;;;;;4995672;28;20206;-72
2022/10/05 10:33:34;;;;;;;4.93;3.05;;;36.30;43.30;;;;;;5104196;28;20587;-72
2022/10/05 10:36:11;;;;;;;9.32;3.80;;;35.50;42.50;;;;;;5036206;28;20238;-72
2022/10/05 10:38:47;;;;;;;9.00;2.92;;;34.20;42.90;;;;;;5113800;28;20589;-72
2022/10/05 10:41:46;;;;;;;5.13;2.75;;;32.60;44.20;;;;;;5112561;28;20284;-73
2022/10/05 10:44:48;;;;;;;5.82;2.88;;;30.90;46.80;;;;;;5111046;28;20523;-71
2022/10/05 10:47:50;;;;;;;3.53;2.78;;;30.80;50.00;;;;;;5110237;28;20204;-72
2022/10/05 10:50:50;;;;;;;3.03;2.22;;;32.40;47.30;;;;;;5097557;28;20214;-72
2022/10/05 10:54:02;;;;;;;5.00;2.03;;;33.80;45.30;;;;;;5114833;28;20199;-71
2022/10/05 10:57:01;;;;;;;4.55;2.60;;;34.20;43.20;;;;;;5077290;28;20237;-72
2022/10/05 11:00:03;;;;;;;6.57;2.70;;;33.70;43.30;;;;;;5109432;28;20207;-71
2022/10/05 11:02:53;;;;;;;3.95;2.05;;;33.70;44.10;;;;;;5077827;28;20230;-72
2022/10/05 11:05:33;;;;;;;5.43;2.50;;;33.80;43.40;;;;;;5098093;27;20591;-72
2022/10/05 11:08:41;;;;;;;2.92;1.90;;;34.40;42.50;;;;;;5110194;28;20206;-71
2022/10/05 11:11:43;;;;;;;4.72;2.17;;;34.20;41.50;;;;;;5101736;28;20621;-71
2022/10/05 11:14:39;;;;;;;4.60;2.35;;;32.90;42.00;;;;;;5110266;28;20215;-72
2022/10/05 11:17:36;;;;;;;3.33;2.17;;;31.30;44.00;;;;;;5110861;28;20207;-71
2022/10/05 11:20:37;;;;;;;3.28;2.10;;;30.00;45.90;;;;;;5106038;28;20200;-72
2022/10/05 11:23:41;;;;;;;6.57;2.25;;;28.70;47.80;;;;;;5109211;27;20256;-73
2022/10/05 11:26:28;;;;;;;3.75;2.22;;;27.60;49.60;;;;;;5047482;28;20231;-72
2022/10/05 11:29:43;;;;;;;3.03;1.98;;;26.90;51.50;;;;;;5112211;27;20210;-71
2022/10/05 11:32:41;;;;;;;5.70;2.60;;;26.30;52.10;;;;;;5027267;28;20225;-72
2022/10/05 11:36:00;;;;;;;4.05;2.58;;;25.90;53.50;;;;;;5021881;28;20222;-72
2022/10/05 11:39:03;;;;;;;3.67;2.38;;;26.40;55.30;;;;;;5074269;28;20212;-72
2022/10/05 11:42:03;;;;;;;4.68;2.78;;;27.80;51.60;;;;;;5100905;28;20195;-71
2022/10/05 11:45:06;;;;;;;8.98;2.38;;;28.60;50.50;;;;;;5110144;28;20582;-71
2022/10/05 11:47:40;;;;;;;3.17;2.03;;;29.30;49.90;;;;;;5111937;28;20207;-71
2022/10/05 11:50:20;;;;;;;4.70;2.20;;;29.50;48.50;;;;;;5109513;28;20211;-72
2022/10/05 11:52:54;;;;;;;3.33;1.75;;;30.00;48.60;;;;;;5112727;28;20203;-72
2022/10/05 11:55:26;;;;;;;4.03;2.30;;;29.90;47.30;;;;;;5113316;28;20516;-72
2022/10/05 11:57:59;;;;;;;6.90;2.20;;;29.20;48.00;;;;;;5114133;28;20204;-71
2022/10/05 12:00:32;;;;;;;5.82;2.42;;;28.40;49.10;;;;;;5112756;28;20200;-73
2022/10/05 12:03:20;;;;;;;5.65;2.42;;;27.80;50.40;;;;;;5112517;28;20204;-72
2022/10/05 12:06:00;;;;;;;4.50;2.30;;;27.40;51.50;;;;;;5114118;28;20653;-72
2022/10/05 12:08:37;;;;;;;5.75;2.97;;;27.00;52.10;;;;;;5113248;28;20207;-73
2022/10/05 12:11:12;;;;;;;3.45;2.47;;;26.80;52.80;;;;;;5114394;28;20203;-71
2022/10/05 12:13:50;;;;;;;3.70;2.47;;;26.50;53.20;;;;;;5113276;28;20290;-72
2022/10/05 12:16:23;;;;;;;7.07;2.67;;;26.30;53.80;;;;;;5108236;28;20663;-73
2022/10/05 12:18:57;;;;;;;4.50;2.42;;;26.00;54.20;;;;;;5108820;28;20192;-72
2022/10/05 12:21:32;;;;;;;4.32;2.30;;;25.60;54.80;;;;;;5111379;28;20204;-73
2022/10/05 12:24:02;;;;;;;5.80;2.88;;;25.30;55.30;;;;;;5106158;28;20231;-75
2022/10/05 12:26:34;;;;;;;5.50;3.03;;;24.90;56.00;;;;;;5108207;28;20700;-73
2022/10/05 12:29:12;;;;;;;5.18;3.30;;;24.50;56.80;;;;;;5109713;28;20214;-73
2022/10/05 12:31:47;;;;;;;5.63;2.95;;;24.00;58.00;;;;;;5109899;28;20195;-74
2022/10/05 12:34:26;;;;;;;5.13;3.40;;;23.80;58.80;;;;;;5111039;28;21606;-73
2022/10/05 12:36:57;;;;;;;5.40;2.75;;;23.60;59.20;;;;;;5112686;28;20562;-74
2022/10/05 12:39:32;;;;;;;6.20;3.38;;;23.40;59.70;;;;;;5112595;28;20862;-73
2022/10/05 12:42:15;;;;;;;6.30;3.20;;;23.10;59.70;;;;;;5111573;28;20230;-73
2022/10/05 12:45:03;;;;;;;6.47;3.10;;;22.80;60.50;;;;;;5113775;28;20196;-73
2022/10/05 12:47:43;;;;;;;4.88;3.17;;;22.50;61.60;;;;;;5101008;28;20236;-73
2022/10/05 12:50:20;;;;;;;7.10;3.88;;;22.40;62.60;;;;;;5103781;28;20592;-73
2022/10/05 12:53:02;;;;;;;7.40;3.40;;;22.20;63.30;;;;;;5107002;28;20280;-75
2022/10/05 12:55:37;;;;;;;5.50;3.00;;;22.00;64.40;;;;;;5105705;28;20831;-73
2022/10/05 12:58:17;;;;;;;6.78;3.65;;;21.90;65.20;;;;;;5110953;28;20211;-74
2022/10/05 13:00:51;;;;;;;5.45;3.00;;;22.00;65.30;;;;;;5111707;28;20595;-72
2022/10/05 13:03:24;;;;;;;5.85;3.80;;;22.20;65.00;;;;;;5112523;28;20612;-73
2022/10/05 13:05:59;;;;;;;7.03;3.60;;;22.30;64.40;;;;;;5113359;28;20204;-75
2022/10/05 13:08:33;;;;;;;5.15;3.55;;;22.30;64.40;;;;;;5112845;28;20200;-74
2022/10/05 13:11:05;;;;;;;7.75;3.63;;;22.40;64.30;;;;;;5111134;28;20200;-73
2022/10/05 13:13:45;;;;;;;6.50;3.63;;;22.40;64.60;;;;;;5106879;28;20205;-74
2022/10/05 13:16:23;;;;;;;6.53;3.15;;;22.20;64.10;;;;;;5109695;28;20454;-74
2022/10/05 13:19:17;;;;;;;4.63;3.13;;;22.00;64.70;;;;;;5106744;28;20210;-74
2022/10/05 13:22:04;;;;;;;9.25;3.67;;;21.80;65.60;;;;;;5110190;28;20211;-74
2022/10/05 13:24:37;;;;;;;7.05;3.40;;;21.70;66.00;;;;;;5108399;28;20243;-73
2022/10/05 13:27:13;;;;;;;17.55;3.88;;;21.50;67.00;;;;;;5111347;28;20231;-73
2022/10/05 13:29:45;;;;;;;6.25;3.50;;;21.30;67.60;;;;;;5105066;28;20325;-74
2022/10/05 13:32:17;;;;;;;8.85;3.40;;;21.10;67.90;;;;;;5107575;28;20245;-74
2022/10/05 13:34:52;;;;;;;4.75;3.47;;;20.90;68.40;;;;;;5105429;28;20727;-74
2022/10/05 13:37:30;;;;;;;6.90;3.22;;;20.80;69.10;;;;;;5104436;28;20204;-74
2022/10/05 13:40:09;;;;;;;8.02;3.92;;;20.40;69.80;;;;;;5109594;28;20329;-75
2022/10/05 13:42:44;;;;;;;6.05;3.53;;;20.20;71.10;;;;;;5110342;28;20203;-75
2022/10/05 13:45:16;;;;;;;7.13;4.15;;;20.00;72.10;;;;;;5108347;28;20286;-75
2022/10/05 13:47:56;;;;;;;6.60;3.53;;;19.80;73.00;;;;;;5110208;28;20202;-75
2022/10/05 13:50:28;;;;;;;5.47;3.30;;;19.70;74.10;;;;;;5110398;28;20191;-74